createdAt,value
2023-01-29T00:01:45.954Z,100.00
2023-01-29T00:06:47.997Z,100.00
2023-01-29T00:11:49.739Z,100.00
2023-01-29T00:16:51.447Z,100.00
2023-01-29T00:21:53.127Z,100.00
2023-01-29T00:26:54.760Z,100.00
2023-01-29T00:31:56.523Z,100.00
2023-01-29T00:37:04.891Z,100.00
2023-01-29T00:42:25.204Z,100.00
2023-01-29T00:47:36.566Z,100.00
2023-01-29T00:52:38.794Z,100.00
2023-01-29T00:57:40.447Z,100.00
2023-01-29T01:03:00.796Z,100.00
2023-01-29T01:08:02.496Z,100.00
2023-01-29T01:13:06.382Z,100.00
2023-01-29T01:18:08.061Z,100.00
2023-01-29T01:23:09.710Z,100.00
2023-01-29T01:28:11.391Z,100.00
2023-01-29T01:33:13.318Z,100.00
2023-01-29T01:38:14.951Z,100.00
2023-01-29T01:43:16.596Z,100.00
2023-01-29T01:48:24.217Z,100.00
2023-01-29T01:54:07.062Z,100.00
2023-01-29T01:59:12.111Z,100.00
2023-01-29T02:04:40.407Z,100.00
2023-01-29T02:09:46.957Z,100.00
2023-01-29T02:14:48.710Z,100.00
2023-01-29T02:20:14.621Z,100.00
2023-01-29T02:25:41.154Z,100.00
2023-01-29T02:30:58.396Z,100.00
2023-01-29T02:36:15.171Z,100.00
2023-01-29T02:41:40.564Z,100.00
2023-01-29T02:46:48.203Z,100.00
2023-01-29T02:52:15.118Z,100.00
2023-01-29T02:57:48.719Z,100.00
2023-01-29T03:03:12.882Z,100.00
2023-01-29T03:08:20.541Z,100.00
2023-01-29T03:13:32.245Z,100.00
2023-01-29T03:18:43.804Z,100.00
2023-01-29T03:24:03.973Z,100.00
2023-01-29T03:29:27.789Z,100.00
2023-01-29T03:34:35.287Z,100.00
2023-01-29T03:39:37.112Z,100.00
2023-01-29T03:44:49.033Z,100.00
2023-01-29T03:50:00.945Z,100.00
2023-01-29T03:55:15.584Z,100.00
2023-01-29T04:00:27.972Z,100.00
2023-01-29T04:05:34.586Z,100.00
2023-01-29T04:10:39.005Z,100.00
2023-01-29T04:15:48.244Z,100.00
2023-01-29T04:20:50.253Z,100.00
2023-01-29T04:26:14.446Z,100.00
2023-01-29T04:31:17.019Z,100.00
2023-01-29T04:36:41.653Z,100.00
2023-01-29T04:41:54.400Z,100.00
2023-01-29T04:47:08.279Z,100.00
2023-01-29T04:52:19.805Z,100.00
2023-01-29T04:57:32.097Z,100.00
2023-01-29T05:02:36.353Z,100.00
2023-01-29T05:07:39.516Z,100.00
2023-01-29T05:12:45.921Z,100.00
2023-01-29T05:17:47.846Z,100.00
2023-01-29T05:22:49.630Z,100.00
2023-01-29T05:28:05.489Z,100.00
2023-01-29T05:33:16.896Z,100.00
2023-01-29T05:38:20.187Z,100.00
2023-01-29T05:43:25.418Z,100.00
2023-01-29T05:48:29.174Z,100.00
2023-01-29T05:53:31.742Z,100.00
2023-01-29T05:58:34.251Z,100.00
2023-01-29T06:03:35.887Z,100.00
2023-01-29T06:08:37.606Z,100.00
2023-01-29T06:13:39.643Z,100.00
2023-01-29T06:18:41.939Z,100.00
2023-01-29T06:23:43.568Z,100.00
2023-01-29T06:28:48.415Z,100.00
2023-01-29T06:33:50.073Z,100.00
2023-01-29T06:38:51.709Z,100.00
2023-01-29T06:43:53.444Z,100.00
2023-01-29T06:48:58.832Z,100.00
2023-01-29T06:54:00.563Z,100.00
2023-01-29T06:59:02.752Z,100.00
2023-01-29T07:04:04.604Z,100.00
2023-01-29T07:09:06.357Z,100.00
2023-01-29T07:14:08.227Z,100.00
2023-01-29T07:19:09.931Z,100.00
2023-01-29T07:24:11.725Z,100.00
2023-01-29T07:29:13.438Z,100.00
2023-01-29T07:34:15.097Z,100.00
2023-01-29T07:39:16.782Z,100.00
2023-01-29T07:44:18.485Z,100.00
2023-01-29T07:49:20.279Z,100.00
2023-01-29T07:54:21.947Z,100.00
2023-01-29T07:59:23.684Z,100.00
2023-01-29T08:04:25.558Z,100.00
2023-01-29T08:09:27.208Z,100.00
2023-01-29T08:14:28.863Z,100.00
2023-01-29T08:19:30.605Z,100.00
2023-01-29T08:24:47.444Z,100.00
2023-01-29T08:29:54.510Z,100.00
2023-01-29T08:34:56.178Z,99.99
2023-01-29T08:39:57.976Z,99.03
2023-01-29T08:44:59.728Z,99.17
2023-01-29T08:50:01.376Z,98.71
2023-01-29T08:55:03.173Z,98.01
2023-01-29T09:00:07.517Z,97.42
2023-01-29T09:05:10.300Z,96.44
2023-01-29T09:10:12.516Z,95.74
2023-01-29T09:15:14.286Z,94.28
2023-01-29T09:20:16.397Z,93.39
2023-01-29T09:25:18.616Z,93.42
2023-01-29T09:30:20.661Z,92.22
2023-01-29T09:35:23.825Z,93.19
2023-01-29T09:40:34.695Z,93.75
2023-01-29T09:45:37.190Z,93.95
2023-01-29T09:50:43.725Z,93.27
2023-01-29T09:56:02.811Z,92.25
2023-01-29T10:01:19.442Z,92.19
2023-01-29T10:06:47.966Z,91.55
2023-01-29T10:12:08.207Z,91.08
2023-01-29T10:17:35.058Z,90.92
2023-01-29T10:22:53.796Z,90.97
2023-01-29T10:27:58.830Z,90.90
2023-01-29T10:33:06.129Z,91.02
2023-01-29T10:38:33.851Z,90.80
2023-01-29T10:43:44.887Z,90.36
2023-01-29T10:49:00.535Z,90.65
2023-01-29T10:54:20.457Z,90.18
2023-01-29T10:59:31.111Z,90.70
2023-01-29T11:04:35.415Z,90.52
2023-01-29T11:09:47.961Z,89.29
2023-01-29T11:15:07.099Z,90.72
2023-01-29T11:20:27.245Z,89.44
2023-01-29T11:25:32.780Z,89.45
2023-01-29T11:30:43.429Z,89.07
2023-01-29T11:35:45.687Z,89.44
2023-01-29T11:40:47.962Z,88.63
2023-01-29T11:45:53.704Z,89.27
2023-01-29T11:51:00.684Z,88.93
2023-01-29T11:56:07.332Z,89.86
2023-01-29T12:01:10.012Z,88.37
2023-01-29T12:06:22.859Z,88.83
2023-01-29T12:11:35.633Z,89.84
2023-01-29T12:17:03.567Z,89.12
2023-01-29T12:22:25.118Z,89.52
2023-01-29T12:27:59.432Z,87.69
2023-01-29T12:33:15.108Z,88.37
2023-01-29T12:38:23.023Z,88.91
2023-01-29T12:43:48.272Z,88.20
2023-01-29T12:48:51.313Z,89.61
2023-01-29T12:53:59.899Z,88.91
2023-01-29T12:59:10.123Z,88.30
2023-01-29T13:04:30.937Z,88.89
2023-01-29T13:09:35.454Z,88.99
2023-01-29T13:14:53.247Z,88.31
2023-01-29T13:20:00.806Z,89.20
2023-01-29T13:25:05.680Z,89.43
2023-01-29T13:30:08.929Z,89.88
2023-01-29T13:35:16.003Z,89.07
2023-01-29T13:40:25.943Z,88.73
2023-01-29T13:45:33.510Z,88.96
2023-01-29T13:50:41.508Z,89.19
2023-01-29T13:55:44.103Z,88.93
2023-01-29T14:00:48.765Z,88.56
2023-01-29T14:06:03.840Z,89.61
2023-01-29T14:11:21.155Z,89.08
2023-01-29T14:16:22.971Z,89.14
2023-01-29T14:21:38.204Z,88.97
2023-01-29T14:26:44.040Z,89.62
2023-01-29T14:31:56.318Z,90.17
2023-01-29T14:37:03.319Z,88.72
2023-01-29T14:42:36.604Z,89.46
2023-01-29T14:47:38.433Z,89.44
2023-01-29T14:52:43.477Z,89.61
2023-01-29T14:57:46.522Z,89.65
2023-01-29T15:03:01.427Z,89.79
2023-01-29T15:08:10.063Z,89.03
2023-01-29T15:13:15.664Z,88.81
2023-01-29T15:18:42.475Z,90.18
2023-01-29T15:23:45.188Z,89.21
2023-01-29T15:29:03.571Z,88.50
2023-01-29T15:34:07.787Z,89.35
2023-01-29T15:39:09.560Z,87.69
2023-01-29T15:44:17.515Z,86.61
2023-01-29T15:49:29.559Z,86.13
2023-01-29T15:54:34.289Z,87.61
2023-01-29T15:59:43.880Z,88.15
2023-01-29T16:04:46.758Z,89.20
2023-01-29T16:09:50.093Z,88.96
2023-01-29T16:14:56.712Z,89.67
2023-01-29T16:20:00.549Z,89.67
2023-01-29T16:25:20.370Z,89.66
2023-01-29T16:30:28.806Z,89.51
2023-01-29T16:35:33.835Z,89.56
2023-01-29T16:40:38.374Z,90.52
2023-01-29T16:45:40.854Z,90.24
2023-01-29T16:50:54.312Z,90.69
2023-01-29T16:56:05.845Z,90.39
2023-01-29T17:01:11.682Z,90.49
2023-01-29T17:06:21.836Z,90.76
2023-01-29T17:11:40.305Z,90.82
2023-01-29T17:17:02.172Z,91.10
2023-01-29T17:22:07.848Z,91.27
2023-01-29T17:27:22.092Z,90.97
2023-01-29T17:32:43.949Z,91.25
2023-01-29T17:37:49.623Z,91.04
2023-01-29T17:42:52.109Z,91.53
2023-01-29T17:47:54.343Z,91.42
2023-01-29T17:52:56.925Z,91.92
2023-01-29T17:57:59.103Z,91.87
2023-01-29T18:03:02.624Z,92.03
2023-01-29T18:08:05.404Z,91.75
2023-01-29T18:13:07.916Z,91.10
2023-01-29T18:18:23.094Z,91.85
2023-01-29T18:23:26.053Z,91.92
2023-01-29T18:28:28.513Z,91.79
2023-01-29T18:33:31.640Z,91.97
2023-01-29T18:38:34.135Z,91.83
2023-01-29T18:43:37.944Z,91.94
2023-01-29T18:48:43.850Z,91.98
2023-01-29T18:53:52.267Z,91.82
2023-01-29T18:58:57.777Z,91.21
2023-01-29T19:04:03.917Z,90.94
2023-01-29T19:09:06.209Z,91.17
2023-01-29T19:14:09.445Z,91.90
2023-01-29T19:19:12.210Z,91.62
2023-01-29T19:24:14.931Z,91.27
2023-01-29T19:29:17.892Z,91.59
2023-01-29T19:34:20.524Z,90.79
2023-01-29T19:39:23.077Z,90.92
2023-01-29T19:44:26.126Z,91.20
2023-01-29T19:49:31.480Z,90.92
2023-01-29T19:54:34.134Z,90.84
2023-01-29T19:59:36.706Z,91.21
2023-01-29T20:04:40.394Z,90.55
2023-01-29T20:09:43.133Z,90.24
2023-01-29T20:14:49.529Z,90.72
2023-01-29T20:19:51.970Z,90.63
2023-01-29T20:24:56.848Z,90.77
2023-01-29T20:30:00.758Z,90.75
2023-01-29T20:35:03.876Z,90.72
2023-01-29T20:40:06.993Z,90.59
2023-01-29T20:45:11.518Z,90.51
2023-01-29T20:50:16.347Z,90.88
2023-01-29T20:55:19.250Z,90.82
2023-01-29T21:00:22.826Z,90.68
2023-01-29T21:05:25.750Z,91.18
2023-01-29T21:10:28.426Z,90.92
2023-01-29T21:15:31.705Z,92.06
2023-01-29T21:20:35.359Z,91.81
2023-01-29T21:25:38.887Z,91.25
2023-01-29T21:30:40.769Z,91.17
2023-01-29T21:35:42.575Z,91.38
2023-01-29T21:40:44.585Z,90.56
2023-01-29T21:45:47.739Z,89.63
2023-01-29T21:50:49.542Z,87.78
2023-01-29T21:55:51.982Z,88.61
2023-01-29T22:00:53.677Z,88.77
2023-01-29T22:05:55.517Z,89.44
2023-01-29T22:10:57.237Z,88.30
2023-01-29T22:15:59.001Z,87.66
2023-01-29T22:21:02.971Z,88.46
2023-01-29T22:26:06.754Z,88.40
2023-01-29T22:31:08.430Z,88.58
2023-01-29T22:36:10.375Z,88.66
2023-01-29T22:41:12.132Z,88.38
2023-01-29T22:46:14.127Z,88.89
2023-01-29T22:51:15.944Z,88.98
2023-01-29T22:56:18.907Z,89.42
2023-01-29T23:01:22.758Z,89.18
2023-01-29T23:06:24.670Z,89.22
2023-01-29T23:11:26.317Z,89.89
2023-01-29T23:16:28.703Z,90.60
2023-01-29T23:21:30.588Z,90.65
2023-01-29T23:26:50.703Z,90.53
2023-01-29T23:31:52.431Z,90.71
2023-01-29T23:36:54.504Z,90.85
2023-01-29T23:41:56.238Z,90.55
2023-01-29T23:46:58.018Z,90.69
2023-01-29T23:51:59.741Z,91.01
2023-01-29T23:57:01.438Z,91.33
